Champion — WCZ7631 — position and weather

sailwx.info

Track history (hours):
 
Tides and Currents Weather Stations Pressure Air Temp Water Temp Dewpoint Dewpoint Depression Visibility Wind Speed Wind Dir Waves Ship Positions

Champion

Owner: MC CULLEY MARINE SERVICES INC, FORT PIERCE, FL. More information available from US FCC via Universal Licensing System and Coast Guard Vessel Documentation Center.

Last reported at 2017-Jun-11 19:07 UTC. Time now 2017-Jun-28 17:16 UTC.
Position N 26°54' W 079°15'.
Warning: this ship's position is 16 days out of date.

Length 20 m; draft 1.7 m.

Type: Towing. MMSI: 367005250.

Date/timePositionNaut miles runAvg speedWind from/ knotsBaromVisibWave heightAir tempDewpointWater temp
2017-Jun-11 19:07N 26°54' W 079°15'1 4.1
2017-Jun-11 18:52N 26°53' W 079°14'1 3.9
2017-Jun-11 18:30N 26°53' W 079°12'3 3.9
2017-Jun-11 17:46N 26°52' W 079°09'1 3.9
2017-Jun-11 17:28N 26°52' W 079°08'2 3.8
2017-Jun-11 16:58N 26°52' W 079°06'4 0.4
2017-Jun-11 04:56N 26°55' W 079°02'0 0.0
2017-Jun-11 04:19N 26°55' W 079°02'44 0.9
2017-Jun-09 04:19N 26°57' W 079°51'1 4.4
2017-Jun-09 04:00N 26°57' W 079°53'2 4.3
2017-Jun-09 03:31N 26°56' W 079°55'2 4.0
2017-Jun-09 03:00N 26°56' W 079°57'2 4.0
2017-Jun-09 02:31N 26°56' W 079°60'2 4.2
2017-Jun-09 02:00N 26°57' W 080°02'2 4.1
2017-Jun-09 01:31N 26°58' W 080°04'2 4.2
2017-Jun-09 01:01N 27°00' W 080°04'2 4.6
2017-Jun-09 00:31N 27°02' W 080°05'  
Track history (hours):
 
Tides and Currents Weather Stations Pressure Air Temp Water Temp Dewpoint Dewpoint Depression Visibility Wind Speed Wind Dir Waves Ship Positions

Champion

Owner: MC CULLEY MARINE SERVICES INC, FORT PIERCE, FL. More information available from US FCC via Universal Licensing System and Coast Guard Vessel Documentation Center.

Last reported at 2017-Jun-11 19:07 UTC. Time now 2017-Jun-28 17:16 UTC.
Position N 26°54' W 079°15'.
Warning: this ship's position is 16 days out of date.

Length 20 m; draft 1.7 m.

Type: Towing. MMSI: 367005250.

Date/timePositionNaut miles runAvg speedWind from/ knotsBaromVisibWave heightAir tempDewpointWater temp
2017-Jun-11 19:07N 26°54' W 079°15'1 4.1
2017-Jun-11 18:52N 26°53' W 079°14'1 3.9
2017-Jun-11 18:30N 26°53' W 079°12'3 3.9
2017-Jun-11 17:46N 26°52' W 079°09'1 3.9
2017-Jun-11 17:28N 26°52' W 079°08'2 3.8
2017-Jun-11 16:58N 26°52' W 079°06'4 0.4
2017-Jun-11 04:56N 26°55' W 079°02'0 0.0
2017-Jun-11 04:19N 26°55' W 079°02'44 0.9
2017-Jun-09 04:19N 26°57' W 079°51'1 4.4
2017-Jun-09 04:00N 26°57' W 079°53'2 4.3
2017-Jun-09 03:31N 26°56' W 079°55'2 4.0
2017-Jun-09 03:00N 26°56' W 079°57'2 4.0
2017-Jun-09 02:31N 26°56' W 079°60'2 4.2
2017-Jun-09 02:00N 26°57' W 080°02'2 4.1
2017-Jun-09 01:31N 26°58' W 080°04'2 4.2
2017-Jun-09 01:01N 27°00' W 080°04'2 4.6
2017-Jun-09 00:31N 27°02' W 080°05'  

Dump ship's entire track history